sensor_id;sensor_type;location;lat;lon;timestamp;P1;durP1;ratioP1;P2;durP2;ratioP2
71104;SDS011;58760;48.716;8.962;2023-04-03T00:00:56;5.82;;;2.40;;
71104;SDS011;58760;48.716;8.962;2023-04-03T00:03:22;6.32;;;2.40;;
71104;SDS011;58760;48.716;8.962;2023-04-03T00:05:48;5.07;;;1.95;;
71104;SDS011;58760;48.716;8.962;2023-04-03T00:08:13;5.35;;;2.28;;
71104;SDS011;58760;48.716;8.962;2023-04-03T00:10:39;6.80;;;2.50;;
71104;SDS011;58760;48.716;8.962;2023-04-03T00:13:04;7.38;;;2.28;;
71104;SDS011;58760;48.716;8.962;2023-04-03T00:15:31;5.53;;;2.20;;
71104;SDS011;58760;48.716;8.962;2023-04-03T00:17:57;4.82;;;2.42;;
71104;SDS011;58760;48.716;8.962;2023-04-03T00:20:22;7.15;;;2.50;;
71104;SDS011;58760;48.716;8.962;2023-04-03T00:22:48;6.72;;;2.42;;
71104;SDS011;58760;48.716;8.962;2023-04-03T00:25:13;5.82;;;2.42;;
71104;SDS011;58760;48.716;8.962;2023-04-03T00:27:39;5.55;;;2.40;;
71104;SDS011;58760;48.716;8.962;2023-04-03T00:30:06;5.57;;;2.30;;
71104;SDS011;58760;48.716;8.962;2023-04-03T00:32:35;7.00;;;2.50;;
71104;SDS011;58760;48.716;8.962;2023-04-03T00:35:01;4.65;;;1.92;;
71104;SDS011;58760;48.716;8.962;2023-04-03T00:37:26;5.53;;;2.53;;
71104;SDS011;58760;48.716;8.962;2023-04-03T00:39:52;5.50;;;2.08;;
71104;SDS011;58760;48.716;8.962;2023-04-03T00:42:17;6.43;;;2.40;;
71104;SDS011;58760;48.716;8.962;2023-04-03T00:47:10;4.70;;;2.50;;
71104;SDS011;58760;48.716;8.962;2023-04-03T00:49:38;5.68;;;2.47;;
71104;SDS011;58760;48.716;8.962;2023-04-03T00:52:05;6.70;;;2.70;;
71104;SDS011;58760;48.716;8.962;2023-04-03T00:54:37;6.68;;;2.53;;
71104;SDS011;58760;48.716;8.962;2023-04-03T00:57:05;6.55;;;2.20;;
71104;SDS011;58760;48.716;8.962;2023-04-03T00:59:32;5.15;;;2.10;;
71104;SDS011;58760;48.716;8.962;2023-04-03T01:02:01;4.53;;;2.10;;
71104;SDS011;58760;48.716;8.962;2023-04-03T01:04:27;3.78;;;1.95;;
71104;SDS011;58760;48.716;8.962;2023-04-03T01:07:02;6.10;;;2.35;;
71104;SDS011;58760;48.716;8.962;2023-04-03T01:09:30;5.63;;;2.38;;
71104;SDS011;58760;48.716;8.962;2023-04-03T01:14:42;4.85;;;2.35;;
71104;SDS011;58760;48.716;8.962;2023-04-03T01:22:58;5.60;;;2.40;;
71104;SDS011;58760;48.716;8.962;2023-04-03T01:25:33;5.57;;;2.75;;
71104;SDS011;58760;48.716;8.962;2023-04-03T01:28:01;10.90;;;2.60;;
71104;SDS011;58760;48.716;8.962;2023-04-03T01:30:31;7.20;;;2.78;;
71104;SDS011;58760;48.716;8.962;2023-04-03T01:32:59;5.63;;;2.38;;
71104;SDS011;58760;48.716;8.962;2023-04-03T01:35:24;6.15;;;2.70;;
71104;SDS011;58760;48.716;8.962;2023-04-03T01:37:50;4.80;;;2.10;;
71104;SDS011;58760;48.716;8.962;2023-04-03T01:40:15;4.85;;;2.20;;
71104;SDS011;58760;48.716;8.962;2023-04-03T01:42:41;6.53;;;2.50;;
71104;SDS011;58760;48.716;8.962;2023-04-03T01:45:06;6.68;;;2.70;;
71104;SDS011;58760;48.716;8.962;2023-04-03T01:47:32;5.13;;;2.70;;
71104;SDS011;58760;48.716;8.962;2023-04-03T01:49:57;5.68;;;2.63;;
71104;SDS011;58760;48.716;8.962;2023-04-03T01:52:23;4.70;;;2.15;;
71104;SDS011;58760;48.716;8.962;2023-04-03T01:54:48;6.72;;;2.58;;
71104;SDS011;58760;48.716;8.962;2023-04-03T01:57:14;4.50;;;2.00;;
71104;SDS011;58760;48.716;8.962;2023-04-03T01:59:40;4.50;;;2.30;;
71104;SDS011;58760;48.716;8.962;2023-04-03T02:02:05;3.92;;;2.03;;
71104;SDS011;58760;48.716;8.962;2023-04-03T02:04:31;5.65;;;2.58;;
71104;SDS011;58760;48.716;8.962;2023-04-03T02:06:56;6.47;;;2.40;;
71104;SDS011;58760;48.716;8.962;2023-04-03T02:09:22;5.70;;;2.55;;
71104;SDS011;58760;48.716;8.962;2023-04-03T02:11:47;5.93;;;2.20;;
71104;SDS011;58760;48.716;8.962;2023-04-03T02:14:12;5.85;;;2.30;;
71104;SDS011;58760;48.716;8.962;2023-04-03T02:16:38;4.72;;;1.90;;
71104;SDS011;58760;48.716;8.962;2023-04-03T02:19:03;6.50;;;2.55;;
71104;SDS011;58760;48.716;8.962;2023-04-03T02:21:29;5.75;;;2.58;;
71104;SDS011;58760;48.716;8.962;2023-04-03T02:23:54;7.30;;;2.30;;
71104;SDS011;58760;48.716;8.962;2023-04-03T02:26:20;6.22;;;2.70;;
71104;SDS011;58760;48.716;8.962;2023-04-03T02:28:48;5.40;;;2.53;;
71104;SDS011;58760;48.716;8.962;2023-04-03T02:31:16;6.45;;;2.35;;
71104;SDS011;58760;48.716;8.962;2023-04-03T02:33:41;6.75;;;2.53;;
71104;SDS011;58760;48.716;8.962;2023-04-03T02:36:07;5.38;;;2.63;;
71104;SDS011;58760;48.716;8.962;2023-04-03T02:38:33;5.35;;;3.00;;
71104;SDS011;58760;48.716;8.962;2023-04-03T02:41:07;5.20;;;2.30;;
71104;SDS011;58760;48.716;8.962;2023-04-03T02:43:34;6.30;;;2.10;;
71104;SDS011;58760;48.716;8.962;2023-04-03T02:45:59;6.18;;;2.78;;
71104;SDS011;58760;48.716;8.962;2023-04-03T02:48:25;6.38;;;2.60;;
71104;SDS011;58760;48.716;8.962;2023-04-03T02:50:51;6.22;;;2.80;;
71104;SDS011;58760;48.716;8.962;2023-04-03T02:53:17;5.30;;;2.47;;
71104;SDS011;58760;48.716;8.962;2023-04-03T02:55:43;6.13;;;2.45;;
71104;SDS011;58760;48.716;8.962;2023-04-03T02:58:09;7.03;;;2.47;;
71104;SDS011;58760;48.716;8.962;2023-04-03T03:00:34;7.85;;;2.70;;
71104;SDS011;58760;48.716;8.962;2023-04-03T03:03:00;4.65;;;2.15;;
71104;SDS011;58760;48.716;8.962;2023-04-03T03:05:26;6.13;;;2.50;;
71104;SDS011;58760;48.716;8.962;2023-04-03T03:07:52;6.20;;;2.42;;
71104;SDS011;58760;48.716;8.962;2023-04-03T03:10:17;5.00;;;2.50;;
71104;SDS011;58760;48.716;8.962;2023-04-03T03:12:43;6.15;;;2.47;;
71104;SDS011;58760;48.716;8.962;2023-04-03T03:15:08;7.60;;;3.10;;
71104;SDS011;58760;48.716;8.962;2023-04-03T03:17:34;7.63;;;2.70;;
71104;SDS011;58760;48.716;8.962;2023-04-03T03:20:01;5.43;;;2.60;;
71104;SDS011;58760;48.716;8.962;2023-04-03T03:22:27;6.15;;;2.15;;
71104;SDS011;58760;48.716;8.962;2023-04-03T03:24:53;7.55;;;2.75;;
71104;SDS011;58760;48.716;8.962;2023-04-03T03:27:18;5.47;;;2.45;;
71104;SDS011;58760;48.716;8.962;2023-04-03T03:29:44;5.28;;;2.30;;
71104;SDS011;58760;48.716;8.962;2023-04-03T03:32:09;5.03;;;2.40;;
71104;SDS011;58760;48.716;8.962;2023-04-03T03:34:35;5.53;;;2.70;;
71104;SDS011;58760;48.716;8.962;2023-04-03T03:37:00;5.45;;;2.40;;
71104;SDS011;58760;48.716;8.962;2023-04-03T03:39:26;5.43;;;2.20;;
71104;SDS011;58760;48.716;8.962;2023-04-03T03:41:51;5.70;;;2.00;;
71104;SDS011;58760;48.716;8.962;2023-04-03T03:44:18;6.40;;;2.40;;
71104;SDS011;58760;48.716;8.962;2023-04-03T03:46:44;6.90;;;2.30;;
71104;SDS011;58760;48.716;8.962;2023-04-03T03:49:10;6.13;;;2.47;;
71104;SDS011;58760;48.716;8.962;2023-04-03T03:51:36;4.57;;;2.28;;
71104;SDS011;58760;48.716;8.962;2023-04-03T03:54:02;6.82;;;2.65;;
71104;SDS011;58760;48.716;8.962;2023-04-03T03:56:28;5.80;;;2.25;;
71104;SDS011;58760;48.716;8.962;2023-04-03T03:58:54;5.03;;;2.08;;
71104;SDS011;58760;48.716;8.962;2023-04-03T04:01:21;5.32;;;2.30;;
71104;SDS011;58760;48.716;8.962;2023-04-03T04:03:47;5.38;;;2.40;;
71104;SDS011;58760;48.716;8.962;2023-04-03T04:06:13;5.00;;;2.20;;
71104;SDS011;58760;48.716;8.962;2023-04-03T04:08:38;5.10;;;2.25;;
71104;SDS011;58760;48.716;8.962;2023-04-03T04:11:04;4.70;;;2.28;;
71104;SDS011;58760;48.716;8.962;2023-04-03T04:13:30;5.00;;;2.17;;
71104;SDS011;58760;48.716;8.962;2023-04-03T04:15:55;4.90;;;2.10;;
71104;SDS011;58760;48.716;8.962;2023-04-03T04:18:21;5.13;;;2.13;;
71104;SDS011;58760;48.716;8.962;2023-04-03T04:20:47;5.88;;;2.30;;
71104;SDS011;58760;48.716;8.962;2023-04-03T04:23:13;5.40;;;2.30;;
71104;SDS011;58760;48.716;8.962;2023-04-03T04:25:38;4.97;;;2.20;;
71104;SDS011;58760;48.716;8.962;2023-04-03T04:28:04;5.50;;;2.33;;
71104;SDS011;58760;48.716;8.962;2023-04-03T04:30:30;5.15;;;2.38;;
71104;SDS011;58760;48.716;8.962;2023-04-03T04:32:55;5.53;;;2.33;;
71104;SDS011;58760;48.716;8.962;2023-04-03T04:35:21;8.48;;;2.50;;
71104;SDS011;58760;48.716;8.962;2023-04-03T04:37:46;5.47;;;2.45;;
71104;SDS011;58760;48.716;8.962;2023-04-03T04:40:11;5.25;;;2.33;;
71104;SDS011;58760;48.716;8.962;2023-04-03T04:42:37;4.57;;;2.10;;
71104;SDS011;58760;48.716;8.962;2023-04-03T04:45:02;5.93;;;2.30;;
71104;SDS011;58760;48.716;8.962;2023-04-03T04:47:28;5.75;;;2.42;;
71104;SDS011;58760;48.716;8.962;2023-04-03T04:49:54;5.32;;;2.63;;
71104;SDS011;58760;48.716;8.962;2023-04-03T04:52:20;6.97;;;2.67;;
71104;SDS011;58760;48.716;8.962;2023-04-03T04:54:45;4.60;;;2.03;;
71104;SDS011;58760;48.716;8.962;2023-04-03T04:57:11;5.25;;;2.42;;
71104;SDS011;58760;48.716;8.962;2023-04-03T04:59:36;6.43;;;2.53;;
71104;SDS011;58760;48.716;8.962;2023-04-03T05:02:01;6.50;;;2.67;;
71104;SDS011;58760;48.716;8.962;2023-04-03T05:04:27;5.85;;;2.63;;
71104;SDS011;58760;48.716;8.962;2023-04-03T05:06:52;5.88;;;2.00;;
71104;SDS011;58760;48.716;8.962;2023-04-03T05:09:18;5.47;;;2.35;;
71104;SDS011;58760;48.716;8.962;2023-04-03T05:11:45;4.55;;;1.95;;
71104;SDS011;58760;48.716;8.962;2023-04-03T05:14:10;5.40;;;2.20;;
71104;SDS011;58760;48.716;8.962;2023-04-03T05:16:36;5.05;;;2.40;;
71104;SDS011;58760;48.716;8.962;2023-04-03T05:19:01;6.82;;;2.40;;
71104;SDS011;58760;48.716;8.962;2023-04-03T05:21:27;5.43;;;1.92;;
71104;SDS011;58760;48.716;8.962;2023-04-03T05:23:56;5.18;;;2.25;;
71104;SDS011;58760;48.716;8.962;2023-04-03T05:26:22;5.18;;;2.40;;
71104;SDS011;58760;48.716;8.962;2023-04-03T05:28:47;4.40;;;1.95;;
71104;SDS011;58760;48.716;8.962;2023-04-03T05:31:13;5.93;;;1.85;;
71104;SDS011;58760;48.716;8.962;2023-04-03T05:33:38;5.65;;;1.95;;
71104;SDS011;58760;48.716;8.962;2023-04-03T05:36:04;6.28;;;2.50;;
71104;SDS011;58760;48.716;8.962;2023-04-03T05:38:30;5.65;;;2.00;;
71104;SDS011;58760;48.716;8.962;2023-04-03T05:40:55;6.07;;;2.25;;
71104;SDS011;58760;48.716;8.962;2023-04-03T05:43:21;8.10;;;3.33;;
71104;SDS011;58760;48.716;8.962;2023-04-03T05:45:47;6.93;;;3.05;;
71104;SDS011;58760;48.716;8.962;2023-04-03T05:48:12;5.63;;;2.58;;
71104;SDS011;58760;48.716;8.962;2023-04-03T05:50:38;4.85;;;2.08;;
71104;SDS011;58760;48.716;8.962;2023-04-03T05:53:06;5.55;;;2.55;;
71104;SDS011;58760;48.716;8.962;2023-04-03T05:55:35;5.55;;;1.90;;
71104;SDS011;58760;48.716;8.962;2023-04-03T05:58:01;5.13;;;1.80;;
71104;SDS011;58760;48.716;8.962;2023-04-03T06:00:26;5.65;;;2.00;;
71104;SDS011;58760;48.716;8.962;2023-04-03T06:02:52;9.85;;;2.70;;
71104;SDS011;58760;48.716;8.962;2023-04-03T06:05:18;6.47;;;2.15;;
71104;SDS011;58760;48.716;8.962;2023-04-03T06:07:43;4.28;;;1.80;;
71104;SDS011;58760;48.716;8.962;2023-04-03T06:10:10;3.58;;;1.90;;
71104;SDS011;58760;48.716;8.962;2023-04-03T06:12:37;5.75;;;2.17;;
71104;SDS011;58760;48.716;8.962;2023-04-03T06:15:03;4.53;;;1.88;;
71104;SDS011;58760;48.716;8.962;2023-04-03T06:17:28;8.35;;;2.00;;
71104;SDS011;58760;48.716;8.962;2023-04-03T06:19:54;7.65;;;2.40;;
71104;SDS011;58760;48.716;8.962;2023-04-03T06:22:20;6.07;;;2.28;;
71104;SDS011;58760;48.716;8.962;2023-04-03T06:24:46;4.30;;;1.98;;
71104;SDS011;58760;48.716;8.962;2023-04-03T06:27:11;5.28;;;2.72;;
71104;SDS011;58760;48.716;8.962;2023-04-03T06:29:37;8.05;;;2.55;;
71104;SDS011;58760;48.716;8.962;2023-04-03T06:32:02;4.63;;;2.25;;
71104;SDS011;58760;48.716;8.962;2023-04-03T06:34:28;9.13;;;4.28;;
71104;SDS011;58760;48.716;8.962;2023-04-03T06:36:53;8.77;;;2.97;;
71104;SDS011;58760;48.716;8.962;2023-04-03T06:39:19;11.02;;;3.45;;
71104;SDS011;58760;48.716;8.962;2023-04-03T06:41:47;14.75;;;4.32;;
71104;SDS011;58760;48.716;8.962;2023-04-03T06:44:13;14.52;;;3.60;;
71104;SDS011;58760;48.716;8.962;2023-04-03T06:46:40;16.52;;;4.75;;
71104;SDS011;58760;48.716;8.962;2023-04-03T06:49:06;8.02;;;2.75;;
71104;SDS011;58760;48.716;8.962;2023-04-03T06:51:35;6.15;;;2.45;;
71104;SDS011;58760;48.716;8.962;2023-04-03T06:54:02;7.95;;;3.15;;
71104;SDS011;58760;48.716;8.962;2023-04-03T06:56:28;6.90;;;2.25;;
71104;SDS011;58760;48.716;8.962;2023-04-03T06:58:54;7.00;;;2.00;;
71104;SDS011;58760;48.716;8.962;2023-04-03T07:01:22;4.88;;;2.25;;
71104;SDS011;58760;48.716;8.962;2023-04-03T07:03:48;5.63;;;1.92;;
71104;SDS011;58760;48.716;8.962;2023-04-03T07:06:14;7.25;;;2.10;;
71104;SDS011;58760;48.716;8.962;2023-04-03T07:08:42;4.32;;;1.80;;
71104;SDS011;58760;48.716;8.962;2023-04-03T07:11:09;5.32;;;1.95;;
71104;SDS011;58760;48.716;8.962;2023-04-03T07:13:36;4.85;;;1.80;;
71104;SDS011;58760;48.716;8.962;2023-04-03T07:16:02;6.72;;;2.50;;
71104;SDS011;58760;48.716;8.962;2023-04-03T07:18:30;7.25;;;2.15;;
71104;SDS011;58760;48.716;8.962;2023-04-03T07:20:55;6.40;;;1.83;;
71104;SDS011;58760;48.716;8.962;2023-04-03T07:23:21;5.38;;;2.13;;
71104;SDS011;58760;48.716;8.962;2023-04-03T07:25:47;5.32;;;1.73;;
71104;SDS011;58760;48.716;8.962;2023-04-03T07:28:14;5.32;;;2.00;;
71104;SDS011;58760;48.716;8.962;2023-04-03T07:30:44;6.00;;;1.90;;
71104;SDS011;58760;48.716;8.962;2023-04-03T07:33:11;4.47;;;1.88;;
71104;SDS011;58760;48.716;8.962;2023-04-03T07:35:38;7.32;;;2.13;;
71104;SDS011;58760;48.716;8.962;2023-04-03T07:38:04;8.05;;;2.42;;
71104;SDS011;58760;48.716;8.962;2023-04-03T07:40:30;4.65;;;2.10;;
71104;SDS011;58760;48.716;8.962;2023-04-03T07:42:56;5.90;;;2.08;;
71104;SDS011;58760;48.716;8.962;2023-04-03T07:45:22;6.07;;;1.95;;
71104;SDS011;58760;48.716;8.962;2023-04-03T07:47:48;5.28;;;2.05;;
71104;SDS011;58760;48.716;8.962;2023-04-03T07:50:13;7.25;;;1.90;;
71104;SDS011;58760;48.716;8.962;2023-04-03T07:52:39;5.00;;;2.00;;
71104;SDS011;58760;48.716;8.962;2023-04-03T07:55:05;4.82;;;1.75;;
71104;SDS011;58760;48.716;8.962;2023-04-03T07:57:31;5.53;;;1.60;;
71104;SDS011;58760;48.716;8.962;2023-04-03T07:59:56;5.70;;;1.75;;
71104;SDS011;58760;48.716;8.962;2023-04-03T08:02:22;5.13;;;1.90;;
71104;SDS011;58760;48.716;8.962;2023-04-03T08:04:47;4.95;;;2.40;;
71104;SDS011;58760;48.716;8.962;2023-04-03T08:07:12;5.78;;;2.00;;
71104;SDS011;58760;48.716;8.962;2023-04-03T08:09:37;5.15;;;2.20;;
71104;SDS011;58760;48.716;8.962;2023-04-03T08:12:03;4.68;;;2.15;;
71104;SDS011;58760;48.716;8.962;2023-04-03T08:14:30;7.60;;;2.30;;
71104;SDS011;58760;48.716;8.962;2023-04-03T08:16:56;3.97;;;1.77;;
71104;SDS011;58760;48.716;8.962;2023-04-03T08:19:22;4.95;;;1.80;;
71104;SDS011;58760;48.716;8.962;2023-04-03T08:21:47;5.72;;;2.13;;
71104;SDS011;58760;48.716;8.962;2023-04-03T08:24:12;7.10;;;1.90;;
71104;SDS011;58760;48.716;8.962;2023-04-03T08:26:38;7.75;;;2.50;;
71104;SDS011;58760;48.716;8.962;2023-04-03T08:29:03;5.78;;;2.20;;
71104;SDS011;58760;48.716;8.962;2023-04-03T08:31:29;6.82;;;2.17;;
71104;SDS011;58760;48.716;8.962;2023-04-03T08:33:56;5.88;;;2.20;;
71104;SDS011;58760;48.716;8.962;2023-04-03T08:36:23;6.40;;;2.30;;
71104;SDS011;58760;48.716;8.962;2023-04-03T08:38:53;4.95;;;1.83;;
71104;SDS011;58760;48.716;8.962;2023-04-03T08:49:37;4.40;;;1.80;;
71104;SDS011;58760;48.716;8.962;2023-04-03T08:52:12;4.13;;;1.80;;
71104;SDS011;58760;48.716;8.962;2023-04-03T08:54:50;6.22;;;2.00;;
71104;SDS011;58760;48.716;8.962;2023-04-03T08:57:31;4.05;;;1.70;;
71104;SDS011;58760;48.716;8.962;2023-04-03T09:00:00;7.43;;;2.20;;
71104;SDS011;58760;48.716;8.962;2023-04-03T09:02:41;5.25;;;1.83;;
71104;SDS011;58760;48.716;8.962;2023-04-03T09:05:11;6.95;;;2.30;;
71104;SDS011;58760;48.716;8.962;2023-04-03T09:07:42;4.22;;;1.73;;
71104;SDS011;58760;48.716;8.962;2023-04-03T09:10:10;4.53;;;1.83;;
71104;SDS011;58760;48.716;8.962;2023-04-03T09:12:39;6.45;;;1.77;;
71104;SDS011;58760;48.716;8.962;2023-04-03T09:20:12;7.88;;;2.35;;
71104;SDS011;58760;48.716;8.962;2023-04-03T09:22:45;5.40;;;1.92;;
71104;SDS011;58760;48.716;8.962;2023-04-03T09:25:13;4.80;;;2.28;;
71104;SDS011;58760;48.716;8.962;2023-04-03T09:27:41;6.25;;;2.10;;
71104;SDS011;58760;48.716;8.962;2023-04-03T09:30:12;6.65;;;2.00;;
71104;SDS011;58760;48.716;8.962;2023-04-03T09:32:46;4.68;;;2.00;;
71104;SDS011;58760;48.716;8.962;2023-04-03T09:37:42;6.90;;;2.30;;
71104;SDS011;58760;48.716;8.962;2023-04-03T09:42:54;8.43;;;2.22;;
71104;SDS011;58760;48.716;8.962;2023-04-03T09:45:26;4.80;;;1.92;;
71104;SDS011;58760;48.716;8.962;2023-04-03T09:48:07;4.78;;;1.58;;
71104;SDS011;58760;48.716;8.962;2023-04-03T09:53:40;3.88;;;1.70;;
71104;SDS011;58760;48.716;8.962;2023-04-03T09:58:39;4.43;;;1.88;;
71104;SDS011;58760;48.716;8.962;2023-04-03T10:01:07;4.90;;;2.55;;
71104;SDS011;58760;48.716;8.962;2023-04-03T10:03:47;6.00;;;1.77;;
71104;SDS011;58760;48.716;8.962;2023-04-03T10:06:29;6.85;;;1.90;;
71104;SDS011;58760;48.716;8.962;2023-04-03T10:08:59;5.75;;;2.10;;
71104;SDS011;58760;48.716;8.962;2023-04-03T10:11:29;4.63;;;1.63;;
71104;SDS011;58760;48.716;8.962;2023-04-03T10:13:56;5.68;;;1.77;;
71104;SDS011;58760;48.716;8.962;2023-04-03T10:19:12;4.25;;;1.85;;
71104;SDS011;58760;48.716;8.962;2023-04-03T10:21:55;4.88;;;1.85;;
71104;SDS011;58760;48.716;8.962;2023-04-03T10:24:30;6.28;;;1.95;;
71104;SDS011;58760;48.716;8.962;2023-04-03T10:41:21;5.50;;;1.85;;
71104;SDS011;58760;48.716;8.962;2023-04-03T10:46:46;4.25;;;1.63;;
71104;SDS011;58760;48.716;8.962;2023-04-03T10:49:39;3.00;;;1.52;;
71104;SDS011;58760;48.716;8.962;2023-04-03T10:52:17;6.45;;;2.20;;
71104;SDS011;58760;48.716;8.962;2023-04-03T10:57:39;4.90;;;1.83;;
71104;SDS011;58760;48.716;8.962;2023-04-03T11:03:22;5.72;;;2.08;;
71104;SDS011;58760;48.716;8.962;2023-04-03T11:05:35;6.97;;;1.80;;
71104;SDS011;58760;48.716;8.962;2023-04-03T11:10:51;5.50;;;1.70;;
71104;SDS011;58760;48.716;8.962;2023-04-03T11:13:26;4.78;;;1.60;;
71104;SDS011;58760;48.716;8.962;2023-04-03T11:21:15;7.10;;;2.00;;
71104;SDS011;58760;48.716;8.962;2023-04-03T11:23:46;7.07;;;1.80;;
71104;SDS011;58760;48.716;8.962;2023-04-03T11:26:15;6.80;;;2.10;;
71104;SDS011;58760;48.716;8.962;2023-04-03T11:28:44;7.03;;;1.75;;
71104;SDS011;58760;48.716;8.962;2023-04-03T11:34:19;5.82;;;1.60;;
71104;SDS011;58760;48.716;8.962;2023-04-03T11:36:54;6.35;;;1.92;;
71104;SDS011;58760;48.716;8.962;2023-04-03T11:39:22;5.28;;;1.70;;
71104;SDS011;58760;48.716;8.962;2023-04-03T11:41:51;6.97;;;1.88;;
71104;SDS011;58760;48.716;8.962;2023-04-03T11:46:59;5.00;;;1.67;;
71104;SDS011;58760;48.716;8.962;2023-04-03T12:16:19;3.78;;;1.50;;
71104;SDS011;58760;48.716;8.962;2023-04-03T12:21:21;4.07;;;1.60;;
71104;SDS011;58760;48.716;8.962;2023-04-03T12:29:15;3.13;;;1.42;;
71104;SDS011;58760;48.716;8.962;2023-04-03T12:34:46;4.50;;;1.45;;
71104;SDS011;58760;48.716;8.962;2023-04-03T12:43:34;5.10;;;1.80;;
71104;SDS011;58760;48.716;8.962;2023-04-03T12:48:53;4.60;;;1.40;;
71104;SDS011;58760;48.716;8.962;2023-04-03T12:53:58;5.55;;;1.23;;
71104;SDS011;58760;48.716;8.962;2023-04-03T12:56:28;6.47;;;1.55;;
71104;SDS011;58760;48.716;8.962;2023-04-03T12:58:57;3.42;;;1.10;;
71104;SDS011;58760;48.716;8.962;2023-04-03T13:01:41;4.97;;;1.65;;
71104;SDS011;58760;48.716;8.962;2023-04-03T13:04:06;3.13;;;1.60;;
71104;SDS011;58760;48.716;8.962;2023-04-03T13:06:36;3.80;;;1.40;;
71104;SDS011;58760;48.716;8.962;2023-04-03T13:09:06;3.65;;;1.30;;
71104;SDS011;58760;48.716;8.962;2023-04-03T13:11:43;3.00;;;1.38;;
71104;SDS011;58760;48.716;8.962;2023-04-03T13:14:14;5.85;;;1.50;;
71104;SDS011;58760;48.716;8.962;2023-04-03T13:16:41;7.18;;;2.10;;
71104;SDS011;58760;48.716;8.962;2023-04-03T13:19:15;3.33;;;1.20;;
71104;SDS011;58760;48.716;8.962;2023-04-03T13:21:41;5.13;;;1.50;;
71104;SDS011;58760;48.716;8.962;2023-04-03T13:24:09;4.13;;;1.35;;
71104;SDS011;58760;48.716;8.962;2023-04-03T13:26:35;2.95;;;1.40;;
71104;SDS011;58760;48.716;8.962;2023-04-03T13:29:05;4.38;;;1.42;;
71104;SDS011;58760;48.716;8.962;2023-04-03T13:31:33;4.25;;;1.30;;
71104;SDS011;58760;48.716;8.962;2023-04-03T13:34:11;3.47;;;1.50;;
71104;SDS011;58760;48.716;8.962;2023-04-03T13:36:45;3.40;;;1.40;;
71104;SDS011;58760;48.716;8.962;2023-04-03T13:39:25;3.55;;;1.20;;
71104;SDS011;58760;48.716;8.962;2023-04-03T13:41:54;2.75;;;1.30;;
71104;SDS011;58760;48.716;8.962;2023-04-03T13:46:54;4.30;;;1.30;;
71104;SDS011;58760;48.716;8.962;2023-04-03T13:52:20;3.60;;;1.30;;
71104;SDS011;58760;48.716;8.962;2023-04-03T13:54:47;5.60;;;1.50;;
71104;SDS011;58760;48.716;8.962;2023-04-03T13:57:17;4.35;;;1.35;;
71104;SDS011;58760;48.716;8.962;2023-04-03T13:59:42;5.43;;;1.40;;
71104;SDS011;58760;48.716;8.962;2023-04-03T14:07:02;5.15;;;1.55;;
71104;SDS011;58760;48.716;8.962;2023-04-03T14:09:28;8.77;;;1.98;;
71104;SDS011;58760;48.716;8.962;2023-04-03T14:11:58;4.47;;;1.50;;
71104;SDS011;58760;48.716;8.962;2023-04-03T14:14:30;8.18;;;1.88;;
71104;SDS011;58760;48.716;8.962;2023-04-03T14:16:58;5.80;;;1.40;;
71104;SDS011;58760;48.716;8.962;2023-04-03T14:19:28;4.80;;;1.67;;
71104;SDS011;58760;48.716;8.962;2023-04-03T14:21:55;4.15;;;1.52;;
71104;SDS011;58760;48.716;8.962;2023-04-03T14:24:22;6.93;;;1.70;;
71104;SDS011;58760;48.716;8.962;2023-04-03T14:26:50;3.30;;;1.50;;
71104;SDS011;58760;48.716;8.962;2023-04-03T14:29:17;8.23;;;3.00;;
71104;SDS011;58760;48.716;8.962;2023-04-03T14:31:44;5.00;;;1.73;;
71104;SDS011;58760;48.716;8.962;2023-04-03T14:34:14;4.18;;;1.40;;
71104;SDS011;58760;48.716;8.962;2023-04-03T14:36:41;3.38;;;1.30;;
71104;SDS011;58760;48.716;8.962;2023-04-03T14:39:10;4.40;;;1.45;;
71104;SDS011;58760;48.716;8.962;2023-04-03T14:41:42;3.55;;;1.30;;
71104;SDS011;58760;48.716;8.962;2023-04-03T14:44:09;6.28;;;1.60;;
71104;SDS011;58760;48.716;8.962;2023-04-03T14:46:35;8.57;;;2.20;;
71104;SDS011;58760;48.716;8.962;2023-04-03T14:49:03;4.97;;;1.70;;
71104;SDS011;58760;48.716;8.962;2023-04-03T14:51:32;3.75;;;1.50;;
71104;SDS011;58760;48.716;8.962;2023-04-03T14:53:58;8.65;;;2.40;;
71104;SDS011;58760;48.716;8.962;2023-04-03T14:56:27;4.38;;;1.52;;
71104;SDS011;58760;48.716;8.962;2023-04-03T14:58:58;4.57;;;1.80;;
71104;SDS011;58760;48.716;8.962;2023-04-03T15:01:25;4.75;;;1.80;;
71104;SDS011;58760;48.716;8.962;2023-04-03T15:03:52;8.25;;;1.92;;
71104;SDS011;58760;48.716;8.962;2023-04-03T15:06:17;4.38;;;1.65;;
71104;SDS011;58760;48.716;8.962;2023-04-03T15:08:44;5.03;;;1.35;;
71104;SDS011;58760;48.716;8.962;2023-04-03T15:11:11;8.07;;;1.83;;
71104;SDS011;58760;48.716;8.962;2023-04-03T15:13:38;5.75;;;1.40;;
71104;SDS011;58760;48.716;8.962;2023-04-03T15:16:04;6.18;;;1.42;;
71104;SDS011;58760;48.716;8.962;2023-04-03T15:18:32;5.07;;;1.48;;
71104;SDS011;58760;48.716;8.962;2023-04-03T15:21:02;4.57;;;1.35;;
71104;SDS011;58760;48.716;8.962;2023-04-03T15:23:28;4.13;;;1.30;;
71104;SDS011;58760;48.716;8.962;2023-04-03T15:25:55;4.25;;;1.40;;
71104;SDS011;58760;48.716;8.962;2023-04-03T15:30:54;5.55;;;1.98;;
71104;SDS011;58760;48.716;8.962;2023-04-03T15:33:21;9.88;;;1.88;;
71104;SDS011;58760;48.716;8.962;2023-04-03T15:35:47;10.07;;;1.60;;
71104;SDS011;58760;48.716;8.962;2023-04-03T15:38:13;7.35;;;1.60;;
71104;SDS011;58760;48.716;8.962;2023-04-03T15:40:38;4.60;;;1.52;;
71104;SDS011;58760;48.716;8.962;2023-04-03T15:43:04;3.83;;;1.30;;
71104;SDS011;58760;48.716;8.962;2023-04-03T15:45:31;4.13;;;1.50;;
71104;SDS011;58760;48.716;8.962;2023-04-03T15:47:57;3.67;;;1.45;;
71104;SDS011;58760;48.716;8.962;2023-04-03T15:50:23;3.92;;;1.63;;
71104;SDS011;58760;48.716;8.962;2023-04-03T15:52:49;4.00;;;1.60;;
71104;SDS011;58760;48.716;8.962;2023-04-03T15:55:20;7.57;;;1.40;;
71104;SDS011;58760;48.716;8.962;2023-04-03T15:57:46;4.93;;;1.48;;
71104;SDS011;58760;48.716;8.962;2023-04-03T16:00:12;4.43;;;1.50;;
71104;SDS011;58760;48.716;8.962;2023-04-03T16:02:38;5.25;;;1.50;;
71104;SDS011;58760;48.716;8.962;2023-04-03T16:05:03;3.53;;;1.40;;
71104;SDS011;58760;48.716;8.962;2023-04-03T16:07:29;4.78;;;1.70;;
71104;SDS011;58760;48.716;8.962;2023-04-03T16:09:55;4.63;;;1.40;;
71104;SDS011;58760;48.716;8.962;2023-04-03T16:12:21;3.70;;;1.58;;
71104;SDS011;58760;48.716;8.962;2023-04-03T16:14:46;6.30;;;1.48;;
71104;SDS011;58760;48.716;8.962;2023-04-03T16:17:12;5.47;;;2.05;;
71104;SDS011;58760;48.716;8.962;2023-04-03T16:19:37;4.40;;;1.70;;
71104;SDS011;58760;48.716;8.962;2023-04-03T16:22:03;4.03;;;1.35;;
71104;SDS011;58760;48.716;8.962;2023-04-03T16:24:29;10.73;;;1.60;;
71104;SDS011;58760;48.716;8.962;2023-04-03T16:26:54;4.68;;;1.70;;
71104;SDS011;58760;48.716;8.962;2023-04-03T16:29:20;4.95;;;1.67;;
71104;SDS011;58760;48.716;8.962;2023-04-03T16:31:46;6.15;;;1.80;;
71104;SDS011;58760;48.716;8.962;2023-04-03T16:34:11;6.32;;;2.00;;
71104;SDS011;58760;48.716;8.962;2023-04-03T16:36:37;3.42;;;1.40;;
71104;SDS011;58760;48.716;8.962;2023-04-03T16:39:03;4.45;;;1.60;;
71104;SDS011;58760;48.716;8.962;2023-04-03T16:41:28;6.70;;;2.25;;
71104;SDS011;58760;48.716;8.962;2023-04-03T16:43:54;8.88;;;2.03;;
71104;SDS011;58760;48.716;8.962;2023-04-03T16:46:19;4.85;;;1.60;;
71104;SDS011;58760;48.716;8.962;2023-04-03T16:48:45;6.70;;;1.52;;
71104;SDS011;58760;48.716;8.962;2023-04-03T16:51:11;6.97;;;1.50;;
71104;SDS011;58760;48.716;8.962;2023-04-03T16:56:02;5.37;;;1.47;;
71104;SDS011;58760;48.716;8.962;2023-04-03T16:58:28;4.85;;;1.58;;
71104;SDS011;58760;48.716;8.962;2023-04-03T17:00:53;4.45;;;1.20;;
71104;SDS011;58760;48.716;8.962;2023-04-03T17:03:20;4.53;;;1.80;;
71104;SDS011;58760;48.716;8.962;2023-04-03T17:05:46;2.75;;;1.40;;
71104;SDS011;58760;48.716;8.962;2023-04-03T17:08:12;4.25;;;1.50;;